Time;durP1;ratioP1;P1;durP2;ratioP2;P2;SDS_P1;SDS_P2;PMS_P1;PMS_P2;Temp;Humidity;BMP_temperature;BMP_pressure;BME280_temperature;BME280_humidity;BME280_pressure;Samples;Min_cycle;Max_cycle;Signal;HPM_P1;HPM_P2
2022/03/06 00:00:42;;;;;;;0.80;0.80;;;;;;;-6.65;72.41;99270.56;4882208;29;20053;-89
2022/03/06 00:03:09;;;;;;;0.80;0.80;;;;;;;-6.62;72.56;99272.91;4882026;29;20423;-87
2022/03/06 00:05:37;;;;;;;0.80;0.80;;;;;;;-6.69;72.76;99273.56;4882186;29;20141;-88
2022/03/06 00:08:05;;;;;;;0.90;0.90;;;;;;;-6.74;73.27;99266.06;4881183;29;20072;-87
2022/03/06 00:10:34;;;;;;;0.80;0.80;;;;;;;-6.77;73.45;99274.19;4866282;29;20108;-86
2022/03/06 00:13:01;;;;;;;0.80;0.80;;;;;;;-6.83;73.59;99266.84;4880965;29;20634;-87
2022/03/06 00:15:28;;;;;;;0.80;0.80;;;;;;;-6.89;73.76;99269.97;4864517;29;20117;-87
2022/03/06 00:17:55;;;;;;;0.70;0.70;;;;;;;-7.01;74.23;99269.19;4881235;29;20057;-88
2022/03/06 00:20:24;;;;;;;0.80;0.80;;;;;;;-7.05;74.26;99273.03;4885140;29;20076;-87
2022/03/06 00:22:51;;;;;;;0.65;0.65;;;;;;;-7.10;74.70;99264.69;4885170;29;20085;-88
2022/03/06 00:25:18;;;;;;;0.77;0.77;;;;;;;-7.20;74.92;99260.19;4882936;29;20045;-86
2022/03/06 00:27:46;;;;;;;0.70;0.70;;;;;;;-7.23;75.09;99263.06;4881569;29;20064;-87
2022/03/06 00:30:13;;;;;;;1.00;1.00;;;;;;;-7.27;75.35;99264.25;4850541;29;20465;-89
2022/03/06 00:32:41;;;;;;;0.80;0.80;;;;;;;-7.31;75.46;99257.63;4891708;29;20059;-86
2022/03/06 00:35:09;;;;;;;0.90;0.90;;;;;;;-7.34;75.69;99262.25;4849608;29;20061;-88
2022/03/06 00:37:37;;;;;;;0.70;0.70;;;;;;;-7.38;75.99;99261.69;4878778;29;20108;-88
2022/03/06 00:40:08;;;;;;;0.68;0.68;;;;;;;-7.44;76.16;99270.91;4864343;29;20178;-88
2022/03/06 00:42:35;;;;;;;0.77;0.77;;;;;;;-7.45;76.30;99269.22;4864325;29;20048;-87
2022/03/06 00:45:28;;;;;;;0.93;0.93;;;;;;;-7.49;76.64;99267.81;4881143;29;20048;-88
2022/03/06 00:47:55;;;;;;;0.90;0.90;;;;;;;-7.56;76.52;99258.78;4864485;29;20109;-88
2022/03/06 00:50:22;;;;;;;0.90;0.90;;;;;;;-7.57;76.66;99262.34;4870055;29;20094;-88
2022/03/06 00:52:52;;;;;;;0.85;0.85;;;;;;;-7.63;76.97;99263.66;4886688;29;20041;-88
2022/03/06 00:55:19;;;;;;;0.90;0.90;;;;;;;-7.73;77.29;99251.41;4886357;29;20109;-88
2022/03/06 00:57:46;;;;;;;0.75;0.75;;;;;;;-7.69;77.35;99251.06;4898174;29;20052;-87
2022/03/06 01:00:14;;;;;;;0.90;0.90;;;;;;;-7.75;77.36;99250.69;4897412;29;20485;-87
2022/03/06 01:02:41;;;;;;;1.00;1.00;;;;;;;-7.72;77.61;99246.06;4892178;29;20056;-87
2022/03/06 01:05:34;;;;;;;0.88;0.88;;;;;;;-7.74;77.57;99258.44;4881667;29;20250;-87
2022/03/06 01:08:03;;;;;;;0.90;0.90;;;;;;;-7.80;77.94;99251.06;4865579;29;20049;-87
2022/03/06 01:10:30;;;;;;;1.00;1.00;;;;;;;-7.79;77.99;99251.91;4883206;29;20117;-88
2022/03/06 01:12:58;;;;;;;0.80;0.80;;;;;;;-7.86;77.98;99252.38;4881322;29;20125;-88
2022/03/06 01:15:26;;;;;;;0.70;0.70;;;;;;;-7.88;78.06;99249.03;4865906;29;20045;-89
2022/03/06 01:17:54;;;;;;;0.93;0.93;;;;;;;-7.90;78.65;99250.97;4881902;29;20059;-89
2022/03/06 01:20:23;;;;;;;0.70;0.70;;;;;;;-7.91;78.36;99244.06;4864316;29;20135;-88
2022/03/06 01:22:51;;;;;;;0.93;0.93;;;;;;;-7.99;78.52;99241.22;4865414;29;20061;-89
2022/03/06 01:25:19;;;;;;;0.90;0.90;;;;;;;-7.97;78.63;99239.31;4880886;29;20045;-89
2022/03/06 01:27:46;;;;;;;0.80;0.80;;;;;;;-8.01;78.77;99237.06;4864541;29;20064;-89
2022/03/06 01:30:19;;;;;;;1.15;1.15;;;;;;;-8.04;79.06;99234.69;4864815;29;20496;-89
2022/03/06 01:32:52;;;;;;;1.00;1.00;;;;;;;-8.09;78.84;99241.09;4865592;29;20107;-88
2022/03/06 01:35:20;;;;;;;1.00;1.00;;;;;;;-8.08;79.12;99241.94;4881669;29;20083;-87
2022/03/06 01:37:47;;;;;;;0.80;0.80;;;;;;;-8.12;79.03;99240.53;4864553;29;20064;-87
2022/03/06 01:40:18;;;;;;;0.90;0.90;;;;;;;-8.12;79.20;99235.28;4852290;29;20116;-88
2022/03/06 01:42:47;;;;;;;1.05;1.05;;;;;;;-8.12;79.17;99241.34;4870991;29;20057;-87
2022/03/06 01:45:16;;;;;;;1.00;1.00;;;;;;;-8.11;79.22;99227.28;4880584;29;20057;-88
2022/03/06 01:47:46;;;;;;;0.90;0.90;;;;;;;-8.16;79.05;99237.28;4863518;29;20644;-88
2022/03/06 01:50:24;;;;;;;0.90;0.90;;;;;;;-8.14;79.17;99234.56;4847296;29;20052;-87
2022/03/06 01:52:56;;;;;;;1.00;1.00;;;;;;;-8.20;79.17;99242.88;4880851;29;20056;-88
2022/03/06 01:55:24;;;;;;;1.10;1.10;;;;;;;-8.30;79.35;99237.56;4865782;29;20073;-88
2022/03/06 01:57:54;;;;;;;1.00;1.00;;;;;;;-8.27;79.65;99236.47;4864470;29;20154;-89
2022/03/06 02:00:30;;;;;;;0.75;0.75;;;;;;;-8.20;79.63;99246.34;4863622;29;20049;-88
2022/03/06 02:02:57;;;;;;;1.00;1.00;;;;;;;-8.26;79.58;99238.97;4880208;29;20160;-88
2022/03/06 02:05:25;;;;;;;0.90;0.90;;;;;;;-8.31;79.59;99236.69;4863445;29;20049;-87
2022/03/06 02:07:52;;;;;;;1.10;1.10;;;;;;;-8.34;79.81;99230.88;4862818;29;20148;-88
2022/03/06 02:10:20;;;;;;;0.90;0.90;;;;;;;-8.48;79.67;99221.50;4863266;29;20053;-86
2022/03/06 02:12:48;;;;;;;0.93;0.93;;;;;;;-8.43;79.99;99223.75;4864009;29;20057;-87
2022/03/06 02:15:17;;;;;;;0.93;0.93;;;;;;;-8.38;80.06;99225.06;4848752;29;20113;-87
2022/03/06 02:17:45;;;;;;;1.00;1.00;;;;;;;-8.38;79.84;99224.19;4862917;29;20143;-88
2022/03/06 02:20:23;;;;;;;1.00;1.00;;;;;;;-8.39;79.96;99236.47;4878828;29;20053;-87
2022/03/06 02:22:52;;;;;;;1.10;1.10;;;;;;;-8.45;79.99;99218.66;4880289;29;20080;-89
2022/03/06 02:25:26;;;;;;;1.00;1.00;;;;;;;-8.35;80.07;99223.97;4881791;29;20049;-87
2022/03/06 02:27:55;;;;;;;0.90;0.90;;;;;;;-8.38;79.97;99217.19;4869312;29;20045;-85
2022/03/06 02:30:24;;;;;;;0.90;0.90;;;;;;;-8.34;79.96;99220.41;4878998;29;20045;-85
2022/03/06 02:32:52;;;;;;;1.13;1.10;;;;;;;-8.41;79.85;99214.81;4879513;29;20065;-87
2022/03/06 02:35:21;;;;;;;1.15;1.13;;;;;;;-8.47;80.22;99201.41;4878493;29;20045;-85
2022/03/06 02:37:48;;;;;;;1.10;1.10;;;;;;;-8.47;80.27;99222.34;4878070;29;20065;-84
2022/03/06 02:40:17;;;;;;;1.08;1.08;;;;;;;-8.53;80.43;99215.81;4877756;29;20078;-85
2022/03/06 02:42:47;;;;;;;0.85;0.85;;;;;;;-8.53;80.45;99205.34;4878251;29;20053;-84
2022/03/06 02:45:26;;;;;;;1.00;1.00;;;;;;;-8.57;80.60;99209.13;4877792;29;20139;-86
2022/03/06 02:47:56;;;;;;;0.85;0.85;;;;;;;-8.52;80.83;99212.22;4861750;29;20045;-84
2022/03/06 02:50:35;;;;;;;1.00;1.00;;;;;;;-8.58;80.65;99212.69;4861501;29;20074;-84
2022/03/06 02:53:05;;;;;;;1.00;1.00;;;;;;;-8.77;80.78;99214.09;4875221;29;20061;-86
2022/03/06 02:55:33;;;;;;;1.02;1.02;;;;;;;-8.89;80.81;99215.00;4861655;29;20416;-84
2022/03/06 02:58:00;;;;;;;1.10;1.10;;;;;;;-8.99;81.29;99211.44;4861457;29;20433;-86
2022/03/06 03:00:27;;;;;;;1.15;1.13;;;;;;;-9.10;81.51;99222.69;4862327;29;20057;-87
2022/03/06 03:02:56;;;;;;;1.30;1.20;;;;;;;-9.20;81.49;99221.72;4862299;29;20057;-86
2022/03/06 03:05:25;;;;;;;1.00;1.00;;;;;;;-9.24;81.66;99220.25;4883391;29;20129;-85
2022/03/06 03:07:53;;;;;;;1.00;1.00;;;;;;;-9.28;81.91;99216.22;4883646;29;20053;-86
2022/03/06 03:10:22;;;;;;;1.05;1.05;;;;;;;-9.36;81.85;99211.56;4883244;29;20580;-85
2022/03/06 03:12:53;;;;;;;1.13;1.13;;;;;;;-9.39;81.98;99217.03;4881621;29;20060;-87
2022/03/06 03:15:21;;;;;;;1.15;1.10;;;;;;;-9.55;82.02;99216.47;4865442;29;20145;-85
2022/03/06 03:17:48;;;;;;;1.10;1.10;;;;;;;-9.62;82.48;99219.53;4880546;29;20140;-84
2022/03/06 03:20:16;;;;;;;1.10;1.10;;;;;;;-9.67;82.61;99218.19;4882375;29;20049;-88
2022/03/06 03:22:44;;;;;;;1.10;1.10;;;;;;;-9.75;82.71;99218.72;4877806;29;20625;-84
2022/03/06 03:25:11;;;;;;;1.27;1.20;;;;;;;-9.86;83.00;99214.28;4861861;29;20050;-86
2022/03/06 03:27:39;;;;;;;1.20;1.20;;;;;;;-9.94;83.15;99210.56;4862073;29;20064;-86
2022/03/06 03:30:08;;;;;;;1.30;1.20;;;;;;;-10.01;83.20;99215.38;4862961;29;20045;-88
2022/03/06 03:32:35;;;;;;;0.90;0.90;;;;;;;-10.15;83.36;99198.09;4864895;29;20518;-89
2022/03/06 03:35:03;;;;;;;0.95;0.95;;;;;;;-10.10;83.60;99211.66;4870096;29;20534;-87
2022/03/06 03:37:33;;;;;;;0.95;0.95;;;;;;;-10.14;83.92;99212.81;4859660;29;20067;-86
2022/03/06 03:40:01;;;;;;;1.00;1.00;;;;;;;-10.23;84.13;99197.78;4862326;29;20049;-87
2022/03/06 03:42:29;;;;;;;1.08;1.08;;;;;;;-10.25;84.13;99197.91;4877810;29;20057;-86
2022/03/06 03:44:56;;;;;;;1.25;1.20;;;;;;;-10.26;84.19;99190.19;4894192;29;20104;-84
2022/03/06 03:47:23;;;;;;;1.08;1.08;;;;;;;-10.25;84.54;99192.69;4881351;29;20049;-84
2022/03/06 03:49:50;;;;;;;1.00;1.00;;;;;;;-10.23;84.44;99189.94;4900038;29;20503;-85
2022/03/06 03:52:17;;;;;;;1.33;1.23;;;;;;;-10.31;84.50;99189.69;4899493;29;20084;-84
2022/03/06 03:54:44;;;;;;;0.93;0.93;;;;;;;-10.35;84.80;99180.44;4886394;29;20116;-84
2022/03/06 03:57:13;;;;;;;1.10;1.10;;;;;;;-10.33;84.86;99183.75;4865035;29;20049;-84
2022/03/06 03:59:41;;;;;;;1.38;1.27;;;;;;;-10.35;84.81;99177.81;4863790;29;20110;-87
2022/03/06 04:02:09;;;;;;;1.23;1.20;;;;;;;-10.34;84.87;99192.53;4863357;29;20140;-86
2022/03/06 04:04:42;;;;;;;1.33;1.23;;;;;;;-10.38;84.80;99186.69;4865841;29;20052;-88
2022/03/06 04:07:09;;;;;;;0.90;0.90;;;;;;;-10.41;84.82;99188.69;4849298;29;20462;-90
2022/03/06 04:09:36;;;;;;;1.05;1.05;;;;;;;-10.42;84.85;99184.41;4850023;29;20448;-86
2022/03/06 04:12:04;;;;;;;1.05;1.05;;;;;;;-10.43;85.18;99182.72;4862538;29;20080;-88
2022/03/06 04:14:31;;;;;;;0.98;0.98;;;;;;;-10.42;84.97;99181.81;4864983;29;20053;-87
2022/03/06 04:16:58;;;;;;;1.27;1.20;;;;;;;-10.41;85.03;99178.25;4846981;29;20137;-87
2022/03/06 04:19:25;;;;;;;1.30;1.20;;;;;;;-10.41;85.11;99170.41;4846910;29;20049;-88
2022/03/06 04:21:53;;;;;;;1.35;1.25;;;;;;;-10.43;84.87;99174.91;4845963;29;20053;-88
2022/03/06 04:24:20;;;;;;;1.10;1.10;;;;;;;-10.37;85.01;99170.09;4862227;29;20053;-87
2022/03/06 04:26:47;;;;;;;1.10;1.10;;;;;;;-10.34;84.80;99169.03;4831524;29;20049;-87
2022/03/06 04:29:14;;;;;;;1.10;1.10;;;;;;;-10.34;84.58;99172.47;4866576;29;20106;-88
2022/03/06 04:31:41;;;;;;;1.30;1.20;;;;;;;-10.38;84.78;99164.97;4857175;29;20054;-88
2022/03/06 04:34:09;;;;;;;0.90;0.90;;;;;;;-10.35;84.56;99162.16;4848109;29;20160;-88
2022/03/06 04:36:37;;;;;;;1.00;1.00;;;;;;;-10.32;84.51;99164.56;4865486;29;20068;-88
2022/03/06 04:39:05;;;;;;;1.08;1.08;;;;;;;-10.29;84.48;99177.38;4847042;29;20102;-87
2022/03/06 04:41:32;;;;;;;1.05;1.05;;;;;;;-10.23;84.54;99169.06;4847323;29;20133;-87
2022/03/06 04:44:01;;;;;;;1.10;1.10;;;;;;;-10.11;84.42;99173.44;4862915;29;20054;-87
2022/03/06 04:46:31;;;;;;;1.20;1.20;;;;;;;-10.01;84.25;99167.56;4850908;29;20420;-88
2022/03/06 04:48:58;;;;;;;1.10;1.10;;;;;;;-9.87;84.03;99165.63;4849449;29;20516;-89
2022/03/06 04:51:25;;;;;;;1.10;1.10;;;;;;;-9.81;83.62;99154.72;4884401;29;20049;-87
2022/03/06 04:53:54;;;;;;;0.90;0.90;;;;;;;-9.70;83.32;99161.75;4868103;29;20053;-88
2022/03/06 04:56:21;;;;;;;1.00;1.00;;;;;;;-9.65;82.93;99150.97;4868315;29;20231;-88
2022/03/06 04:58:48;;;;;;;1.00;1.00;;;;;;;-9.60;82.94;99149.69;4867962;29;20068;-89
2022/03/06 05:01:16;;;;;;;0.90;0.90;;;;;;;-9.63;82.69;99136.84;4882815;29;20049;-89
2022/03/06 05:03:49;;;;;;;0.80;0.80;;;;;;;-9.61;82.68;99149.81;4868236;29;20049;-88
2022/03/06 05:06:44;;;;;;;1.30;1.20;;;;;;;-9.55;82.62;99154.56;4867736;29;20057;-88
2022/03/06 05:09:11;;;;;;;1.10;1.10;;;;;;;-9.49;82.62;99143.69;4858382;29;20053;-87
2022/03/06 05:11:42;;;;;;;1.08;1.08;;;;;;;-9.34;82.17;99141.72;4864999;29;20061;-89
2022/03/06 05:14:10;;;;;;;1.20;1.20;;;;;;;-9.28;81.86;99136.03;4835803;29;20053;-89
2022/03/06 05:16:37;;;;;;;1.05;1.05;;;;;;;-9.18;81.81;99144.84;4866058;29;20424;-89
2022/03/06 05:19:14;;;;;;;1.10;1.10;;;;;;;-9.13;81.21;99139.25;4852061;29;20045;-87
2022/03/06 05:21:41;;;;;;;1.30;1.20;;;;;;;-9.08;81.01;99138.91;4868897;29;20049;-88
2022/03/06 05:24:09;;;;;;;1.10;1.10;;;;;;;-9.02;80.94;99148.91;4867076;29;20034;-89
2022/03/06 05:26:36;;;;;;;1.10;1.10;;;;;;;-8.98;80.69;99139.88;4884228;29;20056;-88
2022/03/06 05:29:07;;;;;;;1.30;1.20;;;;;;;-8.94;80.41;99138.69;4883750;29;20052;-89
2022/03/06 05:31:35;;;;;;;1.30;1.20;;;;;;;-8.91;80.02;99135.84;4871888;29;20041;-89
2022/03/06 05:34:16;;;;;;;1.10;1.10;;;;;;;-8.85;79.74;99132.75;4885570;29;20057;-88
2022/03/06 05:36:44;;;;;;;1.10;1.10;;;;;;;-8.76;79.64;99137.28;4878458;29;20143;-90
2022/03/06 05:39:12;;;;;;;1.00;1.00;;;;;;;-8.74;79.31;99124.88;4894919;29;20053;-90
2022/03/06 05:41:40;;;;;;;1.05;1.05;;;;;;;-8.65;79.00;99133.81;4893867;29;20065;-90
2022/03/06 05:44:08;;;;;;;1.00;1.00;;;;;;;-8.58;78.98;99134.16;4895528;29;20152;-88
2022/03/06 05:46:37;;;;;;;1.13;1.13;;;;;;;-8.56;78.67;99127.03;4878743;29;20076;-90
2022/03/06 05:49:12;;;;;;;0.98;0.98;;;;;;;-8.54;78.69;99122.50;4878820;29;20049;-87
2022/03/06 05:51:41;;;;;;;1.00;1.00;;;;;;;-8.43;78.37;99117.28;4895861;29;20059;-90
2022/03/06 05:54:09;;;;;;;1.10;1.10;;;;;;;-8.32;78.08;99111.97;4896425;29;20057;-88
2022/03/06 05:56:37;;;;;;;1.00;1.00;;;;;;;-8.20;77.76;99111.94;4862638;29;20053;-88
2022/03/06 05:59:04;;;;;;;0.90;0.90;;;;;;;-8.11;77.41;99113.84;4879651;29;20053;-89
2022/03/06 06:01:32;;;;;;;1.10;1.10;;;;;;;-7.97;77.23;99110.94;4881654;29;20043;-89
2022/03/06 06:03:59;;;;;;;0.90;0.90;;;;;;;-7.78;76.41;99118.13;4884832;29;20037;-89
2022/03/06 06:06:27;;;;;;;1.10;1.10;;;;;;;-7.64;76.21;99119.63;4881319;29;20534;-90
2022/03/06 06:08:55;;;;;;;1.02;1.02;;;;;;;-7.48;75.90;99113.97;4873746;29;20567;-90
2022/03/06 06:11:34;;;;;;;1.23;1.15;;;;;;;-7.31;75.10;99102.06;4868470;29;20073;-86
2022/03/06 06:14:03;;;;;;;1.35;1.25;;;;;;;-7.09;74.41;99119.44;4868314;29;20060;-87
2022/03/06 06:16:31;;;;;;;0.85;0.85;;;;;;;-6.95;74.02;99106.00;4887969;29;20049;-87
2022/03/06 06:18:58;;;;;;;1.02;1.02;;;;;;;-6.80;73.59;99112.56;4887464;29;20053;-87
2022/03/06 06:21:26;;;;;;;0.90;0.90;;;;;;;-6.66;72.89;99115.78;4847496;29;20464;-87
2022/03/06 06:23:54;;;;;;;1.10;1.10;;;;;;;-6.52;72.54;99112.81;4884131;29;20200;-87
2022/03/06 06:26:24;;;;;;;0.95;0.95;;;;;;;-6.35;71.85;99113.97;4872600;29;20511;-88
2022/03/06 06:28:55;;;;;;;0.85;0.85;;;;;;;-6.20;71.19;99102.13;4889330;29;20144;-87
2022/03/06 06:31:24;;;;;;;0.90;0.90;;;;;;;-6.03;70.92;99105.03;4889052;29;20267;-87
2022/03/06 06:33:52;;;;;;;0.90;0.90;;;;;;;-5.90;69.90;99102.94;4873178;29;20135;-87
2022/03/06 06:36:20;;;;;;;0.82;0.82;;;;;;;-5.74;69.19;99108.50;4868501;29;20101;-90
2022/03/06 06:38:55;;;;;;;0.90;0.90;;;;;;;-5.64;68.47;99111.13;4856228;29;20058;-89
2022/03/06 06:41:44;;;;;;;0.90;0.90;;;;;;;-5.49;67.87;99095.78;4831913;29;20062;-90
2022/03/06 06:44:37;;;;;;;0.90;0.90;;;;;;;-5.37;67.14;99094.63;4858476;29;20065;-90
2022/03/06 06:47:21;;;;;;;0.90;0.90;;;;;;;-5.32;66.84;99102.91;4848906;29;20110;-92
2022/03/06 06:50:04;;;;;;;0.90;0.90;;;;;;;-5.28;66.70;99088.53;4841816;29;20050;-89
2022/03/06 06:52:32;;;;;;;0.70;0.70;;;;;;;-5.15;66.60;99087.41;4831777;29;20050;-86
2022/03/06 06:54:59;;;;;;;0.80;0.80;;;;;;;-5.01;66.34;99084.31;4845694;29;20049;-88
2022/03/06 06:57:29;;;;;;;0.70;0.70;;;;;;;-4.89;65.67;99088.41;4845169;29;20544;-86
2022/03/06 06:59:59;;;;;;;0.70;0.70;;;;;;;-4.77;65.26;99077.72;4849915;29;20062;-90
2022/03/06 07:02:29;;;;;;;0.73;0.73;;;;;;;-4.71;64.43;99066.59;4851012;29;20050;-89
2022/03/06 07:05:26;;;;;;;0.70;0.70;;;;;;;-4.47;64.12;99066.06;4833584;29;20109;-88
2022/03/06 07:07:54;;;;;;;0.70;0.70;;;;;;;-4.44;62.39;99066.59;4848379;29;20099;-89
2022/03/06 07:10:22;;;;;;;0.73;0.73;;;;;;;-4.48;62.54;99053.88;4845377;29;20080;-88
2022/03/06 07:12:55;;;;;;;0.60;0.60;;;;;;;-4.36;61.46;99069.31;4850562;29;20050;-89
2022/03/06 07:15:28;;;;;;;0.68;0.68;;;;;;;-4.39;60.95;99045.91;4849103;29;20054;-91
2022/03/06 07:18:05;;;;;;;0.88;0.88;;;;;;;-4.44;60.87;99065.78;4850153;29;20058;-89
2022/03/06 07:20:50;;;;;;;0.65;0.65;;;;;;;-4.40;60.96;99041.63;4851301;29;20374;-91
2022/03/06 07:23:31;;;;;;;0.70;0.70;;;;;;;-4.35;60.24;99051.72;4839236;29;20054;-90
2022/03/06 07:25:59;;;;;;;0.70;0.70;;;;;;;-4.21;60.32;99051.19;4833992;29;20520;-89
2022/03/06 07:28:26;;;;;;;0.70;0.70;;;;;;;-4.11;59.47;99037.13;4851288;29;20057;-92
2022/03/06 07:30:54;;;;;;;0.60;0.60;;;;;;;-4.09;59.82;99043.91;4849677;29;20148;-92
2022/03/06 07:33:23;;;;;;;0.88;0.88;;;;;;;-3.83;59.10;99043.97;4832953;29;20087;-88
2022/03/06 07:35:51;;;;;;;0.88;0.88;;;;;;;-3.81;58.37;99047.31;4843210;29;20077;-91
2022/03/06 07:38:33;;;;;;;0.80;0.80;;;;;;;-3.66;58.45;99058.16;4872428;29;20076;-87
2022/03/06 07:41:04;;;;;;;0.75;0.75;;;;;;;-3.44;57.88;99050.72;4875246;29;20049;-91
2022/03/06 07:43:41;;;;;;;0.60;0.60;;;;;;;-3.43;57.31;99044.47;4839921;29;20180;-85
2022/03/06 07:46:09;;;;;;;0.73;0.73;;;;;;;-3.52;57.40;99030.38;4853331;29;20053;-87
2022/03/06 07:48:36;;;;;;;0.85;0.85;;;;;;;-3.55;57.56;99012.22;4885294;29;20053;-87
2022/03/06 07:51:03;;;;;;;0.60;0.60;;;;;;;-3.31;57.27;99038.78;4867506;29;20045;-88
2022/03/06 07:53:30;;;;;;;0.60;0.60;;;;;;;-3.12;57.06;99042.19;4868754;29;20045;-87
2022/03/06 07:55:58;;;;;;;1.00;1.00;;;;;;;-3.08;55.86;99041.72;4668463;23;10002138;-88
2022/03/06 07:58:25;;;;;;;0.60;0.60;;;;;;;-2.98;55.31;99022.31;4834395;29;20049;-87
2022/03/06 08:00:53;;;;;;;0.82;0.82;;;;;;;-2.97;54.43;99029.25;4865684;29;20052;-88
2022/03/06 08:03:21;;;;;;;0.70;0.70;;;;;;;-2.80;54.09;99027.53;4876251;29;20061;-91
2022/03/06 08:05:49;;;;;;;0.63;0.63;;;;;;;-2.52;53.48;99025.47;4855824;29;20057;-86
2022/03/06 08:08:16;;;;;;;0.73;0.73;;;;;;;-2.53;52.99;98992.09;4876816;29;20056;-87
2022/03/06 08:10:44;;;;;;;0.80;0.80;;;;;;;-2.24;53.02;99010.19;4898901;29;20045;-85
2022/03/06 08:13:11;;;;;;;0.60;0.60;;;;;;;-2.15;52.14;99008.38;4880164;29;20062;-87
2022/03/06 08:15:39;;;;;;;0.80;0.80;;;;;;;-1.84;52.27;99001.47;4873345;29;20123;-84
2022/03/06 08:18:06;;;;;;;0.80;0.80;;;;;;;-1.54;50.66;98997.34;4832530;29;20050;-84
2022/03/06 08:20:33;;;;;;;0.80;0.80;;;;;;;-1.35;50.53;98985.53;4849679;29;20049;-85
2022/03/06 08:23:01;;;;;;;0.85;0.85;;;;;;;-1.04;49.84;98998.06;4852739;29;20089;-84
2022/03/06 08:25:28;;;;;;;0.88;0.88;;;;;;;-0.68;49.28;98994.97;4828488;29;20041;-84
2022/03/06 08:27:55;;;;;;;0.85;0.85;;;;;;;-0.24;48.52;98989.91;4852373;29;20056;-85
2022/03/06 08:30:24;;;;;;;0.98;0.98;;;;;;;-0.02;48.32;98966.22;4851810;29;20053;-85
2022/03/06 08:32:51;;;;;;;0.77;0.77;;;;;;;0.09;47.00;98964.97;4856231;29;20148;-85
2022/03/06 08:35:28;;;;;;;0.80;0.80;;;;;;;0.01;47.04;98955.25;4824448;29;20115;-86
2022/03/06 08:37:55;;;;;;;0.80;0.80;;;;;;;-0.15;46.82;98944.75;4826288;29;20113;-84
2022/03/06 08:40:25;;;;;;;0.95;0.95;;;;;;;-0.15;47.25;98966.81;4846748;29;20513;-84
2022/03/06 08:42:56;;;;;;;1.00;1.00;;;;;;;-0.09;46.84;98934.25;4848570;29;20097;-86
2022/03/06 08:45:24;;;;;;;0.70;0.70;;;;;;;-0.28;47.55;98945.34;4847328;29;20049;-85
2022/03/06 08:47:51;;;;;;;0.90;0.90;;;;;;;0.26;46.31;98942.63;4851535;29;20099;-85
2022/03/06 08:50:19;;;;;;;1.00;1.00;;;;;;;0.08;46.05;98932.31;4840197;29;20053;-87
2022/03/06 08:53:13;;;;;;;0.82;0.82;;;;;;;0.57;45.39;98945.13;4855072;29;20057;-88
2022/03/06 08:55:41;;;;;;;0.98;0.98;;;;;;;0.94;44.94;98934.59;4848534;29;20058;-86
2022/03/06 08:58:11;;;;;;;1.10;1.10;;;;;;;1.19;43.75;98914.69;4840099;29;20516;-85
2022/03/06 09:00:38;;;;;;;0.95;0.95;;;;;;;0.94;43.19;98892.06;4835518;29;20072;-85
2022/03/06 09:03:06;;;;;;;0.90;0.90;;;;;;;1.05;42.93;98908.38;4845214;29;20046;-85
2022/03/06 09:05:38;;;;;;;0.90;0.90;;;;;;;1.00;42.59;98880.72;4853918;29;20145;-84
2022/03/06 09:08:05;;;;;;;1.10;1.10;;;;;;;1.38;42.66;98913.25;4850020;29;20050;-81
2022/03/06 09:10:34;;;;;;;1.10;1.10;;;;;;;1.94;41.64;98915.25;4847900;29;20513;-84
2022/03/06 09:13:01;;;;;;;1.10;1.10;;;;;;;2.15;41.10;98906.41;4832974;29;20085;-86
2022/03/06 09:15:29;;;;;;;1.10;1.10;;;;;;;2.13;40.48;98903.16;4856837;29;20064;-86
2022/03/06 09:17:56;;;;;;;1.30;1.20;;;;;;;2.08;40.34;98900.25;4847717;29;20144;-86
2022/03/06 09:20:24;;;;;;;0.90;0.90;;;;;;;2.01;40.98;98899.34;4853859;29;20470;-85
2022/03/06 09:22:52;;;;;;;1.38;1.27;;;;;;;2.13;40.79;98897.81;4859669;29;20057;-87
2022/03/06 09:25:21;;;;;;;1.00;1.00;;;;;;;2.69;40.29;98894.31;4860462;29;20065;-86
2022/03/06 09:28:10;;;;;;;1.10;1.10;;;;;;;2.73;39.17;98883.03;4855085;29;20073;-87
2022/03/06 09:30:42;;;;;;;1.10;1.10;;;;;;;2.54;39.82;98871.28;4795725;30;20074;-90
2022/03/06 09:33:14;;;;;;;1.27;1.17;;;;;;;2.88;39.41;98874.91;4763263;30;20063;-88
2022/03/06 09:35:56;;;;;;;1.17;1.15;;;;;;;3.15;38.62;98894.53;4780908;30;20055;-86
2022/03/06 09:38:23;;;;;;;1.15;1.15;;;;;;;2.85;38.34;98891.31;4781243;30;20080;-86
2022/03/06 09:40:53;;;;;;;1.10;1.10;;;;;;;2.28;39.55;98879.06;4780084;30;20098;-86
2022/03/06 09:43:25;;;;;;;1.20;1.20;;;;;;;2.44;38.93;98888.63;4754777;30;20551;-85
2022/03/06 09:46:02;;;;;;;1.00;1.00;;;;;;;2.34;39.41;98886.31;4778225;30;20058;-88
2022/03/06 09:48:30;;;;;;;1.10;1.10;;;;;;;2.32;39.11;98867.03;4765803;30;20582;-86
2022/03/06 09:50:57;;;;;;;1.30;1.20;;;;;;;2.97;38.74;98870.25;4789703;29;20073;-86
2022/03/06 09:53:24;;;;;;;1.30;1.20;;;;;;;2.72;37.74;98870.75;4788019;29;20035;-86
2022/03/06 09:55:51;;;;;;;1.05;1.05;;;;;;;2.45;38.04;98871.63;4799288;29;20052;-86
2022/03/06 09:58:19;;;;;;;1.23;1.15;;;;;;;2.04;39.17;98857.19;4781775;29;20094;-86
2022/03/06 10:00:46;;;;;;;1.10;1.10;;;;;;;2.49;38.38;98867.56;4776436;30;20185;-83
2022/03/06 10:03:18;;;;;;;0.88;0.88;;;;;;;1.71;39.09;98873.69;4786074;30;20467;-83
2022/03/06 10:05:49;;;;;;;1.10;1.10;;;;;;;1.80;39.42;98863.78;4785763;30;20055;-82
2022/03/06 10:08:24;;;;;;;1.40;1.30;;;;;;;2.47;38.80;98845.59;4816878;29;20066;-83
2022/03/06 10:11:01;;;;;;;0.98;0.98;;;;;;;2.83;37.49;98845.38;4860251;29;20073;-83
2022/03/06 10:13:32;;;;;;;0.93;0.93;;;;;;;3.04;37.82;98847.13;4842014;29;20081;-84
2022/03/06 10:16:16;;;;;;;1.30;1.20;;;;;;;2.92;37.30;98833.53;4842020;29;20081;-84
2022/03/06 10:18:47;;;;;;;1.00;1.00;;;;;;;2.85;36.89;98826.53;4842787;29;20082;-83
2022/03/06 10:21:23;;;;;;;1.05;1.05;;;;;;;3.31;36.80;98818.66;4852274;29;20053;-84
2022/03/06 10:23:59;;;;;;;1.30;1.20;;;;;;;4.32;34.60;98806.97;4855039;29;20514;-86
2022/03/06 10:26:28;;;;;;;1.20;1.17;;;;;;;4.72;34.07;98833.59;4832276;29;20079;-89
2022/03/06 10:29:12;;;;;;;1.40;1.30;;;;;;;4.76;33.92;98816.06;4863095;29;20052;-87
2022/03/06 10:31:56;;;;;;;1.23;1.20;;;;;;;5.17;33.22;98837.09;4856021;29;20113;-86
2022/03/06 10:34:40;;;;;;;1.40;1.30;;;;;;;4.30;34.48;98809.88;4843106;29;20568;-85
2022/03/06 10:37:12;;;;;;;1.10;1.10;;;;;;;4.62;33.74;98827.88;4844510;29;20336;-87
2022/03/06 10:39:46;;;;;;;1.00;1.00;;;;;;;3.53;35.07;98807.84;4847964;29;20528;-85
2022/03/06 10:42:20;;;;;;;1.10;1.10;;;;;;;3.50;35.70;98801.06;4868014;29;20053;-88
2022/03/06 10:44:48;;;;;;;1.30;1.20;;;;;;;3.89;34.57;98802.09;4868227;29;20046;-86
2022/03/06 10:47:19;;;;;;;1.00;1.00;;;;;;;2.84;36.53;98783.06;4875926;29;20050;-86
2022/03/06 10:50:11;;;;;;;1.08;1.08;;;;;;;3.01;36.58;98795.03;4852755;29;20049;-86
2022/03/06 10:52:42;;;;;;;0.90;0.90;;;;;;;2.21;38.29;98787.69;4850133;29;20163;-86
2022/03/06 10:55:09;;;;;;;0.90;0.90;;;;;;;1.55;39.46;98778.22;4864725;29;20083;-83
2022/03/06 10:57:37;;;;;;;1.00;1.00;;;;;;;1.24;39.77;98766.09;4849509;29;20088;-86
2022/03/06 11:00:06;;;;;;;0.90;0.90;;;;;;;1.56;39.17;98782.50;4852983;29;20078;-87
2022/03/06 11:02:35;;;;;;;1.00;1.00;;;;;;;1.15;39.64;98782.34;4871381;29;20049;-86
2022/03/06 11:05:05;;;;;;;1.10;1.10;;;;;;;1.03;39.86;98753.59;4867654;29;20076;-86
2022/03/06 11:07:32;;;;;;;1.10;1.10;;;;;;;1.55;39.78;98762.25;4863719;29;20122;-88
2022/03/06 11:10:01;;;;;;;1.17;1.17;;;;;;;1.63;38.71;98755.97;4861113;29;20552;-84
2022/03/06 11:12:29;;;;;;;0.98;0.98;;;;;;;1.58;39.30;98748.56;4859163;29;20125;-87
2022/03/06 11:14:58;;;;;;;1.05;1.05;;;;;;;2.41;37.82;98747.84;4860286;29;20050;-88
2022/03/06 11:17:26;;;;;;;1.17;1.17;;;;;;;2.20;37.21;98748.75;4849659;29;20064;-87
2022/03/06 11:19:53;;;;;;;1.02;1.02;;;;;;;2.42;37.53;98741.50;4857125;29;20430;-87
2022/03/06 11:22:48;;;;;;;1.10;1.10;;;;;;;3.25;36.35;98732.28;4842761;29;20060;-87
2022/03/06 11:25:17;;;;;;;1.10;1.10;;;;;;;3.15;35.41;98720.38;4850639;29;20080;-87
2022/03/06 11:28:03;;;;;;;1.17;1.17;;;;;;;3.40;35.28;98715.28;4852583;29;20049;-86
2022/03/06 11:30:32;;;;;;;0.95;0.95;;;;;;;3.29;35.10;98722.00;4834604;29;20107;-86
2022/03/06 11:33:04;;;;;;;0.90;0.90;;;;;;;2.64;36.10;98724.38;4864590;29;20046;-85
2022/03/06 11:35:41;;;;;;;1.30;1.20;;;;;;;2.23;37.02;98690.63;4850275;29;20077;-88
2022/03/06 11:38:11;;;;;;;1.33;1.23;;;;;;;2.62;36.84;98699.75;4843158;29;20106;-86
2022/03/06 11:40:54;;;;;;;1.20;1.20;;;;;;;3.78;35.00;98686.09;4846023;29;20053;-86
2022/03/06 11:43:31;;;;;;;1.00;1.00;;;;;;;3.92;35.03;98697.53;4846937;29;20086;-88
2022/03/06 11:46:05;;;;;;;0.93;0.93;;;;;;;3.10;35.71;98696.16;4819195;29;20111;-88
2022/03/06 11:48:38;;;;;;;0.90;0.90;;;;;;;2.23;37.36;98687.09;4872445;29;20050;-89